createdAt,value
2022-10-19T00:01:52.357Z,8.59
2022-10-19T00:04:19.927Z,8.59
2022-10-19T00:06:47.486Z,8.58
2022-10-19T00:09:15.074Z,8.55
2022-10-19T00:11:43.270Z,8.51
2022-10-19T00:14:10.841Z,8.49
2022-10-19T00:16:38.425Z,8.45
2022-10-19T00:19:06.002Z,8.40
2022-10-19T00:21:33.507Z,8.34
2022-10-19T00:24:01.430Z,8.26
2022-10-19T00:26:28.949Z,8.20
2022-10-19T00:28:56.598Z,8.17
2022-10-19T00:31:24.220Z,8.14
2022-10-19T00:33:51.782Z,8.09
2022-10-19T00:36:19.604Z,8.04
2022-10-19T00:38:47.183Z,7.99
2022-10-19T00:41:15.115Z,7.94
2022-10-19T00:43:42.668Z,7.91
2022-10-19T00:46:10.377Z,7.86
2022-10-19T00:48:38.492Z,7.81
2022-10-19T00:51:06.068Z,7.78
2022-10-19T00:53:33.685Z,7.74
2022-10-19T00:56:01.244Z,7.72
2022-10-19T00:58:28.793Z,7.67
2022-10-19T01:00:56.988Z,7.64
2022-10-19T01:03:24.844Z,7.59
2022-10-19T01:05:52.371Z,7.54
2022-10-19T01:08:19.928Z,7.53
2022-10-19T01:10:47.499Z,7.51
2022-10-19T01:13:15.360Z,7.53
2022-10-19T01:15:43.061Z,7.53
2022-10-19T01:18:10.618Z,7.55
2022-10-19T01:20:38.152Z,7.58
2022-10-19T01:23:05.718Z,7.62
2022-10-19T01:25:35.204Z,7.63
2022-10-19T01:28:03.275Z,7.64
2022-10-19T01:30:31.535Z,7.65
2022-10-19T01:32:59.052Z,7.68
2022-10-19T01:35:26.572Z,7.66
2022-10-19T01:37:54.686Z,7.64
2022-10-19T01:40:22.205Z,7.59
2022-10-19T01:42:49.804Z,7.57
2022-10-19T01:45:17.405Z,7.51
2022-10-19T01:47:44.939Z,7.46
2022-10-19T01:50:13.106Z,7.44
2022-10-19T01:52:40.639Z,7.42
2022-10-19T01:55:08.169Z,7.41
2022-10-19T01:57:35.695Z,7.41
2022-10-19T02:00:07.569Z,7.43
2022-10-19T02:02:36.081Z,7.46
2022-10-19T02:05:03.806Z,7.48
2022-10-19T02:07:31.361Z,7.50
2022-10-19T02:09:59.320Z,7.50
2022-10-19T02:12:26.912Z,7.51
2022-10-19T02:14:55.198Z,7.50
2022-10-19T02:17:22.808Z,7.46
2022-10-19T02:19:50.345Z,7.43
2022-10-19T02:22:17.898Z,7.44
2022-10-19T02:24:45.423Z,7.50
2022-10-19T02:27:13.547Z,7.52
2022-10-19T02:29:41.122Z,7.51
2022-10-19T02:32:09.125Z,7.50
2022-10-19T02:34:36.639Z,7.47
2022-10-19T02:37:04.223Z,7.42
2022-10-19T02:39:32.321Z,7.36
2022-10-19T02:41:59.861Z,7.32
2022-10-19T02:44:27.433Z,7.27
2022-10-19T02:46:54.931Z,7.23
2022-10-19T02:49:22.466Z,7.20
2022-10-19T02:51:50.400Z,7.17
2022-10-19T02:54:18.593Z,7.13
2022-10-19T02:56:46.154Z,7.12
2022-10-19T02:59:13.748Z,7.13
2022-10-19T03:01:41.288Z,7.11
2022-10-19T03:04:09.186Z,7.11
2022-10-19T03:06:36.797Z,7.11
2022-10-19T03:09:04.364Z,7.11
2022-10-19T03:11:31.936Z,7.11
2022-10-19T03:13:59.525Z,7.14
2022-10-19T03:16:27.444Z,7.18
2022-10-19T03:18:55.035Z,7.25
2022-10-19T03:21:22.651Z,7.29
2022-10-19T03:23:50.199Z,7.30
2022-10-19T03:26:17.771Z,7.30
2022-10-19T03:28:46.007Z,7.30
2022-10-19T03:31:13.622Z,7.29
2022-10-19T03:33:41.179Z,7.25
2022-10-19T03:36:09.269Z,7.22
2022-10-19T03:38:36.868Z,7.23
2022-10-19T03:41:04.997Z,7.23
2022-10-19T03:43:32.589Z,7.22
2022-10-19T03:46:00.118Z,7.26
2022-10-19T03:48:28.142Z,7.27
2022-10-19T03:50:55.762Z,7.27
2022-10-19T03:53:24.003Z,7.23
2022-10-19T03:55:51.585Z,7.20
2022-10-19T03:58:19.608Z,7.15
2022-10-19T04:00:47.198Z,7.09
2022-10-19T04:03:14.848Z,7.06
2022-10-19T04:05:42.796Z,7.06
2022-10-19T04:08:10.389Z,7.08
2022-10-19T04:10:37.959Z,7.09
2022-10-19T04:13:05.577Z,7.08
2022-10-19T04:15:33.180Z,7.03
2022-10-19T04:18:01.363Z,6.94
2022-10-19T04:20:28.973Z,6.87
2022-10-19T04:22:56.533Z,6.80
2022-10-19T04:25:24.108Z,6.73
2022-10-19T04:27:51.734Z,6.67
2022-10-19T04:30:19.926Z,6.61
2022-10-19T04:32:47.495Z,6.55
2022-10-19T04:35:15.322Z,6.50
2022-10-19T04:37:42.914Z,6.43
2022-10-19T04:40:14.868Z,6.38
2022-10-19T04:42:43.341Z,6.32
2022-10-19T04:45:10.918Z,6.28
2022-10-19T04:47:38.515Z,6.25
2022-10-19T04:50:06.120Z,6.21
2022-10-19T04:52:35.301Z,6.19
2022-10-19T04:55:02.924Z,6.17
2022-10-19T04:57:30.587Z,6.15
2022-10-19T04:59:58.219Z,6.13
2022-10-19T05:02:26.292Z,6.12
2022-10-19T05:04:53.951Z,6.10
2022-10-19T05:07:22.073Z,6.09
2022-10-19T05:09:49.659Z,6.07
2022-10-19T05:12:17.275Z,6.06
2022-10-19T05:14:44.877Z,6.05
2022-10-19T05:17:12.833Z,6.03
2022-10-19T05:19:41.032Z,6.01
2022-10-19T05:22:08.620Z,6.00
2022-10-19T05:24:36.485Z,6.01
2022-10-19T05:27:04.110Z,6.00
2022-10-19T05:29:33.954Z,6.01
2022-10-19T05:32:02.138Z,6.03
2022-10-19T05:34:29.812Z,6.05
2022-10-19T05:36:57.551Z,6.06
2022-10-19T05:39:25.122Z,6.07
2022-10-19T05:41:52.747Z,6.11
2022-10-19T05:44:20.915Z,6.14
2022-10-19T05:46:48.513Z,6.15
2022-10-19T05:49:16.149Z,6.15
2022-10-19T05:51:43.708Z,6.13
2022-10-19T05:54:11.278Z,6.12
2022-10-19T05:56:39.229Z,6.10
2022-10-19T05:59:06.886Z,6.10
2022-10-19T06:01:34.537Z,6.09
2022-10-19T06:04:02.242Z,6.08
2022-10-19T06:06:30.201Z,6.08
2022-10-19T06:08:59.383Z,6.07
2022-10-19T06:11:27.074Z,6.08
2022-10-19T06:13:54.802Z,6.10
2022-10-19T06:16:23.021Z,6.12
2022-10-19T06:18:50.694Z,6.12
2022-10-19T06:21:19.001Z,6.16
2022-10-19T06:23:46.646Z,6.18
2022-10-19T06:26:14.295Z,6.19
2022-10-19T06:28:42.312Z,6.20
2022-10-19T06:31:10.026Z,6.22
2022-10-19T06:33:38.365Z,6.24
2022-10-19T06:36:06.051Z,6.27
2022-10-19T06:38:34.130Z,6.28
2022-10-19T06:41:01.933Z,6.30
2022-10-19T06:43:29.641Z,6.36
2022-10-19T06:45:57.496Z,6.42
2022-10-19T06:48:25.609Z,6.50
2022-10-19T06:50:53.800Z,6.58
2022-10-19T06:53:21.459Z,6.66
2022-10-19T06:55:49.098Z,6.72
2022-10-19T06:58:17.040Z,6.80
2022-10-19T07:00:44.912Z,6.86
2022-10-19T07:03:12.882Z,6.91
2022-10-19T07:05:40.549Z,6.95
2022-10-19T07:08:08.478Z,6.97
2022-10-19T07:10:36.732Z,7.02
2022-10-19T07:13:04.929Z,7.06
2022-10-19T07:15:32.533Z,7.08
2022-10-19T07:18:00.386Z,7.10
2022-10-19T07:20:28.080Z,7.17
2022-10-19T07:22:56.279Z,7.25
2022-10-19T07:25:24.087Z,7.35
2022-10-19T07:27:51.793Z,7.41
2022-10-19T07:30:20.751Z,7.47
2022-10-19T07:32:48.492Z,7.51
2022-10-19T07:35:18.241Z,7.53
2022-10-19T07:37:45.998Z,7.60
2022-10-19T07:40:13.827Z,7.69
2022-10-19T07:42:41.523Z,7.82
2022-10-19T07:45:09.265Z,7.94
2022-10-19T07:47:37.762Z,8.04
2022-10-19T07:50:05.483Z,8.16
2022-10-19T07:52:36.026Z,8.25
2022-10-19T07:55:04.883Z,8.37
2022-10-19T07:57:32.922Z,8.47
2022-10-19T08:00:01.503Z,8.60
2022-10-19T08:02:39.416Z,8.73
2022-10-19T08:05:17.622Z,8.92
2022-10-19T08:07:47.112Z,9.12
2022-10-19T08:10:15.319Z,9.39
2022-10-19T08:12:42.987Z,9.65
2022-10-19T08:15:10.894Z,9.93
2022-10-19T08:17:38.928Z,10.15
2022-10-19T08:20:06.717Z,10.33
2022-10-19T08:22:35.420Z,10.52
2022-10-19T08:25:03.431Z,10.71
2022-10-19T08:27:31.205Z,10.92
2022-10-19T08:29:59.001Z,11.10
2022-10-19T08:32:26.717Z,11.33
2022-10-19T08:34:54.761Z,11.62
2022-10-19T08:37:39.921Z,11.92
2022-10-19T08:40:10.128Z,12.19
2022-10-19T08:42:37.928Z,12.34
2022-10-19T08:45:06.614Z,12.47
2022-10-19T08:47:34.481Z,12.58
2022-10-19T08:50:02.517Z,12.73
2022-10-19T08:52:34.237Z,12.86
2022-10-19T08:55:03.058Z,12.90
2022-10-19T08:57:32.234Z,12.86
2022-10-19T09:00:00.708Z,12.80
2022-10-19T09:02:28.529Z,12.72
2022-10-19T09:04:56.514Z,12.68
2022-10-19T09:07:24.592Z,12.63
2022-10-19T09:09:53.254Z,12.64
2022-10-19T09:12:21.117Z,12.65
2022-10-19T09:14:48.883Z,12.65
2022-10-19T09:17:17.226Z,12.67
2022-10-19T09:19:45.258Z,12.69
2022-10-19T09:22:15.240Z,12.73
2022-10-19T09:24:43.124Z,12.75
2022-10-19T09:27:10.986Z,12.82
2022-10-19T09:29:39.055Z,12.89
2022-10-19T09:32:06.726Z,12.94
2022-10-19T09:34:35.502Z,12.98
2022-10-19T09:37:03.397Z,13.02
2022-10-19T09:39:31.196Z,13.10
2022-10-19T09:41:59.012Z,13.16
2022-10-19T09:44:27.270Z,13.22
2022-10-19T09:46:55.638Z,13.33
2022-10-19T09:49:23.442Z,13.53
2022-10-19T09:51:51.952Z,13.80
2022-10-19T09:54:19.735Z,14.13
2022-10-19T09:56:47.525Z,14.64
2022-10-19T09:59:15.418Z,15.33
2022-10-19T10:01:43.821Z,16.19
2022-10-19T10:04:11.822Z,17.12
2022-10-19T10:06:40.154Z,17.74
2022-10-19T10:09:08.105Z,18.31
2022-10-19T10:11:36.502Z,18.67
2022-10-19T10:14:07.494Z,18.83
2022-10-19T10:16:37.844Z,18.71
2022-10-19T10:19:05.674Z,18.36
2022-10-19T10:21:34.956Z,17.95
2022-10-19T10:24:03.436Z,17.56
2022-10-19T10:26:31.275Z,17.24
2022-10-19T10:29:01.471Z,17.01
2022-10-19T10:31:29.597Z,16.86
2022-10-19T10:34:02.804Z,16.69
2022-10-19T10:36:39.914Z,16.56
2022-10-19T10:39:07.708Z,16.60
2022-10-19T10:41:35.472Z,16.67
2022-10-19T10:44:05.027Z,16.66
2022-10-19T10:46:32.920Z,16.53
2022-10-19T10:49:01.392Z,16.43
2022-10-19T10:51:29.262Z,16.31
2022-10-19T10:53:58.013Z,16.21
2022-10-19T10:56:25.985Z,16.15
2022-10-19T10:58:53.910Z,16.08
2022-10-19T11:01:22.498Z,16.09
2022-10-19T11:03:50.338Z,16.13
2022-10-19T11:06:19.190Z,16.21
2022-10-19T11:08:47.167Z,16.23
2022-10-19T11:11:15.392Z,16.20
2022-10-19T11:13:43.794Z,16.17
2022-10-19T11:16:11.708Z,16.12
2022-10-19T11:18:39.561Z,16.05
2022-10-19T11:21:07.440Z,16.05
2022-10-19T11:23:35.270Z,16.10
2022-10-19T11:26:03.812Z,16.17
2022-10-19T11:28:31.607Z,16.29
2022-10-19T11:30:59.549Z,16.32
2022-10-19T11:33:27.793Z,16.39
2022-10-19T11:35:55.801Z,16.43
2022-10-19T11:38:29.596Z,16.45
2022-10-19T11:41:17.702Z,16.49
2022-10-19T11:43:45.845Z,16.54
2022-10-19T11:46:13.815Z,16.57
2022-10-19T11:48:43.828Z,16.69
2022-10-19T11:51:20.770Z,16.92
2022-10-19T11:53:49.403Z,17.11
2022-10-19T11:56:17.356Z,17.21
2022-10-19T11:58:46.109Z,17.26
2022-10-19T12:01:14.320Z,17.32
2022-10-19T12:03:42.185Z,17.41
2022-10-19T12:06:11.232Z,17.56
2022-10-19T12:08:39.086Z,17.62
2022-10-19T12:11:07.632Z,17.69
2022-10-19T12:13:35.478Z,17.74
2022-10-19T12:16:03.356Z,17.87
2022-10-19T12:18:31.252Z,18.09
2022-10-19T12:20:58.992Z,18.21
2022-10-19T12:23:27.611Z,18.12
2022-10-19T12:25:55.819Z,17.99
2022-10-19T12:28:23.992Z,17.91
2022-10-19T12:30:51.913Z,17.98
2022-10-19T12:33:19.743Z,17.99
2022-10-19T12:35:50.130Z,17.92
2022-10-19T12:38:17.970Z,17.82
2022-10-19T12:40:45.845Z,17.74
2022-10-19T12:43:13.882Z,17.68
2022-10-19T12:45:41.753Z,17.56
2022-10-19T12:48:11.563Z,17.50
2022-10-19T12:50:39.453Z,17.49
2022-10-19T12:53:07.415Z,17.55
2022-10-19T12:55:36.066Z,17.60
2022-10-19T12:58:04.259Z,17.58
2022-10-19T13:00:33.357Z,17.68
2022-10-19T13:03:01.207Z,17.81
2022-10-19T13:05:28.994Z,17.93
2022-10-19T13:07:56.826Z,18.03
2022-10-19T13:10:24.690Z,18.22
2022-10-19T13:12:53.357Z,18.44
2022-10-19T13:15:21.137Z,18.61
2022-10-19T13:17:50.799Z,18.72
2022-10-19T13:20:18.550Z,18.69
2022-10-19T13:22:46.460Z,18.58
2022-10-19T13:25:14.784Z,18.44
2022-10-19T13:27:42.711Z,18.44
2022-10-19T13:30:10.508Z,18.55
2022-10-19T13:32:38.527Z,18.70
2022-10-19T13:35:06.407Z,18.77
2022-10-19T13:37:34.949Z,18.85
2022-10-19T13:40:02.785Z,19.03
2022-10-19T13:42:30.786Z,19.17
2022-10-19T13:44:58.696Z,19.21
2022-10-19T13:47:28.595Z,19.24
2022-10-19T13:49:57.113Z,19.28
2022-10-19T13:52:25.037Z,19.27
2022-10-19T13:54:52.920Z,19.23
2022-10-19T13:57:20.650Z,19.20
2022-10-19T13:59:48.541Z,19.20
2022-10-19T14:02:18.196Z,19.07
2022-10-19T14:04:45.963Z,18.94
2022-10-19T14:07:14.000Z,18.86
2022-10-19T14:09:41.802Z,18.85
2022-10-19T14:12:10.271Z,18.87
2022-10-19T14:14:38.829Z,18.85
2022-10-19T14:17:06.635Z,18.70
2022-10-19T14:19:34.493Z,18.54
2022-10-19T14:22:02.491Z,18.39
2022-10-19T14:24:30.748Z,18.31
2022-10-19T14:26:59.317Z,18.25
2022-10-19T14:29:27.213Z,18.29
2022-10-19T14:31:55.202Z,18.38
2022-10-19T14:34:22.949Z,18.49
2022-10-19T14:36:50.832Z,18.58
2022-10-19T14:39:19.162Z,18.74
2022-10-19T14:41:47.210Z,18.83
2022-10-19T14:44:15.123Z,18.75
2022-10-19T14:46:42.957Z,18.65
2022-10-19T14:49:11.556Z,18.68
2022-10-19T14:51:39.815Z,18.81
2022-10-19T14:54:07.630Z,18.87
2022-10-19T14:56:35.715Z,18.89
2022-10-19T14:59:03.551Z,18.77
2022-10-19T15:01:31.376Z,18.56
2022-10-19T15:03:59.822Z,18.35
2022-10-19T15:06:27.980Z,18.08
2022-10-19T15:08:55.904Z,17.83
2022-10-19T15:11:23.816Z,17.62
2022-10-19T15:13:52.216Z,17.46
2022-10-19T15:16:20.590Z,17.24
2022-10-19T15:18:49.956Z,16.98
2022-10-19T15:21:18.199Z,16.73
2022-10-19T15:23:45.979Z,16.49
2022-10-19T15:26:17.294Z,16.28
2022-10-19T15:28:47.642Z,16.10
2022-10-19T15:31:15.473Z,15.92
2022-10-19T15:33:43.366Z,15.73
2022-10-19T15:36:17.208Z,15.57
2022-10-19T15:38:45.145Z,15.42
2022-10-19T15:41:13.481Z,15.28
2022-10-19T15:43:41.227Z,15.15
2022-10-19T15:46:09.143Z,15.03
2022-10-19T15:48:36.862Z,14.89
2022-10-19T15:51:05.150Z,14.77
2022-10-19T15:53:33.463Z,14.64
2022-10-19T15:56:01.205Z,14.53
2022-10-19T15:58:29.113Z,14.42
2022-10-19T16:00:56.903Z,14.30
2022-10-19T16:03:24.711Z,14.20
2022-10-19T16:05:53.082Z,14.10
2022-10-19T16:08:20.905Z,13.99
2022-10-19T16:10:48.787Z,13.89
2022-10-19T16:13:16.974Z,13.81
2022-10-19T16:15:47.400Z,13.72
2022-10-19T16:18:18.288Z,13.63
2022-10-19T16:20:46.052Z,13.52
2022-10-19T16:23:14.611Z,13.44
2022-10-19T16:25:42.495Z,13.36
2022-10-19T16:28:10.318Z,13.27
2022-10-19T16:30:38.728Z,13.20
2022-10-19T16:33:06.733Z,13.14
2022-10-19T16:35:35.037Z,13.03
2022-10-19T16:38:02.971Z,12.96
2022-10-19T16:40:32.466Z,12.91
2022-10-19T16:43:01.815Z,12.86
2022-10-19T16:45:29.703Z,12.82
2022-10-19T16:47:57.698Z,12.76
2022-10-19T16:50:25.477Z,12.71
2022-10-19T16:52:53.428Z,12.68
2022-10-19T16:55:21.972Z,12.62
2022-10-19T16:57:50.182Z,12.54
2022-10-19T17:00:18.045Z,12.43
2022-10-19T17:02:46.596Z,12.32
2022-10-19T17:05:14.599Z,12.21
2022-10-19T17:07:43.365Z,12.15
2022-10-19T17:10:11.308Z,12.06
2022-10-19T17:12:39.284Z,12.02
2022-10-19T17:15:41.002Z,11.99
2022-10-19T17:17:56.224Z,11.97
2022-10-19T17:20:24.115Z,11.98
2022-10-19T17:22:52.014Z,11.96
2022-10-19T17:25:19.986Z,11.95
2022-10-19T17:27:47.812Z,11.93
2022-10-19T17:30:16.262Z,11.93
2022-10-19T17:32:44.113Z,11.92
2022-10-19T17:35:11.931Z,11.92
2022-10-19T17:37:39.746Z,11.90
2022-10-19T17:40:07.871Z,11.89
2022-10-19T17:42:36.929Z,11.86
2022-10-19T17:45:04.754Z,11.85
2022-10-19T17:47:32.854Z,11.83
2022-10-19T17:50:00.853Z,11.83
2022-10-19T17:52:28.705Z,11.82
2022-10-19T17:55:13.290Z,11.80
2022-10-19T17:57:41.389Z,11.78
2022-10-19T18:00:09.760Z,11.76
2022-10-19T18:02:37.663Z,11.74
2022-10-19T18:05:06.675Z,11.71
2022-10-19T18:07:34.946Z,11.71
2022-10-19T18:10:03.036Z,11.71
2022-10-19T18:12:30.927Z,11.71
2022-10-19T18:14:58.945Z,11.70
2022-10-19T18:17:28.234Z,11.69
2022-10-19T18:19:56.088Z,11.70
2022-10-19T18:22:24.331Z,11.68
2022-10-19T18:24:52.206Z,11.68
2022-10-19T18:27:19.945Z,11.66
2022-10-19T18:29:48.569Z,11.66
2022-10-19T18:32:16.389Z,11.65
2022-10-19T18:34:44.212Z,11.65
2022-10-19T18:37:12.105Z,11.65
2022-10-19T18:39:39.865Z,11.64
2022-10-19T18:42:08.247Z,11.63
2022-10-19T18:44:36.421Z,11.62
2022-10-19T18:47:04.314Z,11.59
2022-10-19T18:49:32.180Z,11.52
2022-10-19T18:52:00.109Z,11.45
2022-10-19T18:54:28.608Z,11.41
2022-10-19T18:56:56.536Z,11.38
2022-10-19T18:59:24.593Z,11.36
2022-10-19T19:01:52.586Z,11.35
2022-10-19T19:04:20.345Z,11.34
2022-10-19T19:06:50.361Z,11.31
2022-10-19T19:09:19.123Z,11.28
2022-10-19T19:11:46.951Z,11.22
2022-10-19T19:14:16.873Z,11.15
2022-10-19T19:16:44.670Z,11.10
2022-10-19T19:19:13.213Z,11.06
2022-10-19T19:21:44.317Z,11.04
2022-10-19T19:24:12.633Z,10.97
2022-10-19T19:26:40.447Z,10.96
2022-10-19T19:29:08.773Z,10.94
2022-10-19T19:31:37.199Z,10.93
2022-10-19T19:34:06.454Z,10.95
2022-10-19T19:36:34.329Z,10.94
2022-10-19T19:39:02.206Z,10.93
2022-10-19T19:41:31.403Z,10.92
2022-10-19T19:43:59.965Z,10.92
2022-10-19T19:46:27.830Z,10.90
2022-10-19T19:48:55.698Z,10.90
2022-10-19T19:51:23.984Z,10.87
2022-10-19T19:53:51.867Z,10.85
2022-10-19T19:56:21.197Z,10.80
2022-10-19T19:58:49.135Z,10.73
2022-10-19T20:01:16.975Z,10.68
2022-10-19T20:03:45.423Z,10.63
2022-10-19T20:06:13.273Z,10.58
2022-10-19T20:08:41.862Z,10.53
2022-10-19T20:11:09.734Z,10.50
2022-10-19T20:13:38.098Z,10.48
2022-10-19T20:16:07.227Z,10.42
2022-10-19T20:18:35.082Z,10.35
2022-10-19T20:21:03.617Z,10.27
2022-10-19T20:23:31.363Z,10.17
2022-10-19T20:25:59.316Z,10.08
2022-10-19T20:28:27.197Z,10.01
2022-10-19T20:30:55.000Z,9.99
2022-10-19T20:33:23.364Z,9.96
2022-10-19T20:35:51.636Z,9.90
2022-10-19T20:38:19.549Z,9.83
2022-10-19T20:40:47.450Z,9.78
2022-10-19T20:43:16.026Z,9.72
2022-10-19T20:45:44.195Z,9.69
2022-10-19T20:48:12.107Z,9.67
2022-10-19T20:50:40.773Z,9.65
2022-10-19T20:53:09.563Z,9.65
2022-10-19T20:55:37.344Z,9.65
2022-10-19T20:58:06.896Z,9.64
2022-10-19T21:00:34.624Z,9.67
2022-10-19T21:03:02.335Z,9.69
2022-10-19T21:05:30.132Z,9.66
2022-10-19T21:07:58.032Z,9.59
2022-10-19T21:10:26.648Z,9.52
2022-10-19T21:12:54.494Z,9.53
2022-10-19T21:15:22.378Z,9.57
2022-10-19T21:17:50.108Z,9.59
2022-10-19T21:20:17.891Z,9.62
2022-10-19T21:22:46.428Z,9.64
2022-10-19T21:25:14.338Z,9.65
2022-10-19T21:27:42.250Z,9.61
2022-10-19T21:30:10.054Z,9.59
2022-10-19T21:32:37.847Z,9.58
2022-10-19T21:35:06.394Z,9.58
2022-10-19T21:37:34.381Z,9.53
2022-10-19T21:40:02.268Z,9.50
2022-10-19T21:42:30.017Z,9.45
2022-10-19T21:45:06.226Z,9.39
2022-10-19T21:47:40.263Z,9.37
2022-10-19T21:50:08.014Z,9.36
2022-10-19T21:52:35.795Z,9.38
2022-10-19T21:55:03.547Z,9.37
2022-10-19T21:57:31.309Z,9.38
2022-10-19T21:59:59.477Z,9.39
2022-10-19T22:02:27.649Z,9.40
2022-10-19T22:04:55.392Z,9.41
2022-10-19T22:07:23.125Z,9.43
2022-10-19T22:09:50.845Z,9.44
2022-10-19T22:12:18.880Z,9.46
2022-10-19T22:14:46.598Z,9.44
2022-10-19T22:17:14.269Z,9.44
2022-10-19T22:19:41.901Z,9.40
2022-10-19T22:22:09.547Z,9.37
2022-10-19T22:24:38.750Z,9.35
2022-10-19T22:27:06.413Z,9.34
2022-10-19T22:29:34.067Z,9.36
2022-10-19T22:32:01.761Z,9.39
2022-10-19T22:34:29.688Z,9.41
2022-10-19T22:36:57.623Z,9.46
2022-10-19T22:39:27.795Z,9.50
2022-10-19T22:41:55.701Z,9.53
2022-10-19T22:44:23.313Z,9.59
2022-10-19T22:46:50.943Z,9.65
2022-10-19T22:49:19.138Z,9.68
2022-10-19T22:51:46.776Z,9.66
2022-10-19T22:54:14.459Z,9.61
2022-10-19T22:56:42.079Z,9.51
2022-10-19T22:59:09.721Z,9.43
2022-10-19T23:01:37.988Z,9.34
2022-10-19T23:04:05.616Z,9.24
2022-10-19T23:06:33.685Z,9.17
2022-10-19T23:09:01.410Z,9.15
2022-10-19T23:11:29.079Z,9.10
2022-10-19T23:13:57.217Z,9.05
2022-10-19T23:16:24.967Z,8.98
2022-10-19T23:18:52.600Z,8.89
2022-10-19T23:21:20.182Z,8.80
2022-10-19T23:23:47.859Z,8.72
2022-10-19T23:26:16.016Z,8.65
2022-10-19T23:28:44.089Z,8.63
2022-10-19T23:31:11.718Z,8.58
2022-10-19T23:33:39.316Z,8.55
2022-10-19T23:36:06.911Z,8.53
2022-10-19T23:38:35.091Z,8.53
2022-10-19T23:41:02.688Z,8.54
2022-10-19T23:43:30.322Z,8.60
2022-10-19T23:45:58.055Z,8.71
2022-10-19T23:48:25.710Z,8.84
2022-10-19T23:50:55.333Z,9.00
2022-10-19T23:53:22.991Z,9.13
2022-10-19T23:55:50.576Z,9.29
2022-10-19T23:58:18.197Z,9.47
